Airfield :
LOGIN :

Register | Disclaimer

   EN    FR    IT 

 










Legend :    VFR   Marginal VFR   IFR   Intensive IFR   Very Intensive IFR
Visi :
Ceiling :
>= 8 km
>= 3000ft
5 to 8 km
1000 to 3000 ft
1500m to 5 km
500 to 1000 ft
800 to 1500m
200 to 500 ft
< 800m
< 200 ft
Symbols :   Thunderstorms  Fog  Heavy snow  Heavy precipitations  Wind > 20 kt
SIGMETs :     Misc.  Thunderstorms  Icing  Turbulence  Mountain Waves  Volcanic Ashes






- Airport Elevation : 184 ft
- IATA code : BRU


EBBR - Bruxelles

CURRENT METAR :
  • 060550Z 18011KT CAVOK 11/01 Q1016 NOSIG

EXPIRED METARs :
  • 060520Z 18010KT CAVOK 11/01 Q1016 NOSIG
  • 060450Z 18011KT CAVOK 11/01 Q1015 NOSIG
  • 060420Z 18011KT CAVOK 12/01 Q1015 NOSIG
  • 060350Z 18011KT CAVOK 12/01 Q1015 NOSIG

TAF TAF EBBR
Valid from the 06 at 06:00 until the 07 at 12:00 UTC


060510Z 0606/0712 20011KT CAVOK
BECMG 0616/0618 26009KT SCT008 BKN012
BECMG 0621/0624 3000 BR BKN006
PROB30
TEMPO 0702/0707 0400 FG BKN001
BECMG 0707/0710 9999 NSW BKN020



MET'MAP, your aeronautical weather chart ! - Copyright ORBIFLY December 2007 - Disclaimer

ORBIFLY MET'MAP TEAM :

Programming & Development : Alexandra Zaïnal
Concept & original design : Baudouin d'Aumeries
Assistance for programming : Marc-Olivier Méhu
Technical & hardware support : Manuel Goepfert

Contact : metmap@orbifly.com




SOURCES & CREDITS :

   NOAA